createdAt,value
2018-02-19T00:00:04.938Z,44.58
2018-02-19T00:02:32.362Z,49.95
2018-02-19T00:04:59.793Z,51.92
2018-02-19T00:07:27.644Z,48.95
2018-02-19T00:09:55.066Z,55.65
2018-02-19T00:12:22.485Z,57.22
2018-02-19T00:14:49.927Z,57.17
2018-02-19T00:17:17.346Z,49.83
2018-02-19T00:19:44.786Z,54.83
2018-02-19T00:22:12.217Z,51.45
2018-02-19T00:24:39.641Z,53.22
2018-02-19T00:27:07.072Z,58.33
2018-02-19T00:29:34.551Z,48.67
2018-02-19T00:32:01.978Z,59.70
2018-02-19T00:34:29.401Z,55.60
2018-02-19T00:36:56.841Z,55.95
2018-02-19T00:39:24.283Z,47.72
2018-02-19T00:41:51.698Z,49.45
2018-02-19T00:44:19.118Z,58.65
2018-02-19T00:46:46.545Z,52.80
2018-02-19T00:49:13.994Z,52.35
2018-02-19T00:51:41.414Z,60.78
2018-02-19T00:54:08.822Z,61.03
2018-02-19T00:56:36.242Z,50.28
2018-02-19T00:59:03.665Z,53.65
2018-02-19T01:01:31.095Z,54.97
2018-02-19T01:03:58.517Z,56.60
2018-02-19T01:06:25.949Z,58.10
2018-02-19T01:08:53.362Z,50.15
2018-02-19T01:11:20.782Z,60.22
2018-02-19T01:13:48.193Z,61.90
2018-02-19T01:16:15.610Z,59.40
2018-02-19T01:18:43.042Z,57.05
2018-02-19T01:21:10.459Z,67.10
2018-02-19T01:23:37.873Z,62.72
2018-02-19T01:26:05.300Z,63.15
2018-02-19T01:28:32.727Z,64.37
2018-02-19T01:31:00.137Z,63.40
2018-02-19T01:33:27.555Z,59.17
2018-02-19T01:35:54.982Z,67.57
2018-02-19T01:38:22.397Z,67.47
2018-02-19T01:40:49.814Z,59.28
2018-02-19T01:43:17.249Z,66.65
2018-02-19T01:45:44.668Z,64.10
2018-02-19T01:48:12.096Z,70.12
2018-02-19T01:50:39.505Z,57.30
2018-02-19T01:53:06.935Z,68.32
2018-02-19T01:55:34.358Z,64.97
2018-02-19T01:58:01.794Z,58.60
2018-02-19T02:00:29.213Z,64.87
2018-02-19T02:02:56.632Z,64.50
2018-02-19T02:05:24.050Z,67.62
2018-02-19T02:07:51.473Z,65.87
2018-02-19T02:10:18.894Z,63.63
2018-02-19T02:12:46.314Z,58.28
2018-02-19T02:15:13.746Z,59.08
2018-02-19T02:17:41.174Z,57.22
2018-02-19T02:20:08.593Z,65.07
2018-02-19T02:22:36.074Z,60.53
2018-02-19T02:25:03.491Z,66.18
2018-02-19T02:27:30.920Z,63.95
2018-02-19T02:29:58.329Z,60.88
2018-02-19T02:32:25.786Z,66.07
2018-02-19T02:34:53.215Z,66.85
2018-02-19T02:37:20.625Z,62.22
2018-02-19T02:39:48.060Z,66.05
2018-02-19T02:42:15.475Z,57.88
2018-02-19T02:44:42.895Z,62.03
2018-02-19T02:47:10.316Z,55.28
2018-02-19T02:49:37.747Z,63.60
2018-02-19T02:52:05.169Z,66.55
2018-02-19T02:54:32.578Z,63.75
2018-02-19T02:57:00.014Z,56.65
2018-02-19T02:59:27.435Z,60.60
2018-02-19T03:01:54.854Z,66.43
2018-02-19T03:04:22.279Z,68.65
2018-02-19T03:06:49.706Z,59.83
2018-02-19T03:09:17.140Z,61.97
2018-02-19T03:11:44.541Z,60.25
2018-02-19T03:14:11.968Z,65.18
2018-02-19T03:16:39.381Z,62.22
2018-02-19T03:19:06.821Z,62.88
2018-02-19T03:21:34.234Z,59.88
2018-02-19T03:24:01.662Z,56.33
2018-02-19T03:26:29.074Z,63.22
2018-02-19T03:28:56.499Z,58.40
2018-02-19T03:31:23.919Z,61.63
2018-02-19T03:33:51.337Z,59.47
2018-02-19T03:36:18.778Z,60.38
2018-02-19T03:38:46.204Z,53.35
2018-02-19T03:41:13.635Z,59.58
2018-02-19T03:43:41.054Z,54.33
2018-02-19T03:46:08.469Z,53.30
2018-02-19T03:48:35.895Z,58.13
2018-02-19T03:51:03.323Z,56.08
2018-02-19T03:53:30.752Z,57.62
2018-02-19T03:55:58.169Z,56.35
2018-02-19T03:58:25.599Z,52.53
2018-02-19T04:00:53.015Z,53.85
2018-02-19T04:03:20.430Z,53.58
2018-02-19T04:05:47.854Z,57.72
2018-02-19T04:08:15.313Z,62.17
2018-02-19T04:10:42.740Z,65.45
2018-02-19T04:13:10.170Z,53.70
2018-02-19T04:15:37.828Z,58.17
2018-02-19T04:18:05.255Z,66.43
2018-02-19T04:20:32.682Z,53.80
2018-02-19T04:23:00.111Z,54.33
2018-02-19T04:25:27.526Z,49.90
2018-02-19T04:27:54.980Z,53.00
2018-02-19T04:30:22.389Z,61.80
2018-02-19T04:32:49.818Z,55.35
2018-02-19T04:35:17.245Z,50.08
2018-02-19T04:37:44.694Z,56.33
2018-02-19T04:40:12.118Z,59.13
2018-02-19T04:42:39.529Z,59.25
2018-02-19T04:48:05.993Z,56.53
2018-02-19T04:50:33.435Z,56.33
2018-02-19T04:53:00.886Z,52.15
2018-02-19T04:55:28.321Z,53.38
2018-02-19T04:57:55.745Z,50.92
2018-02-19T05:00:23.166Z,51.13
2018-02-19T05:02:50.590Z,52.83
2018-02-19T05:05:18.002Z,47.08
2018-02-19T05:07:45.442Z,55.50
2018-02-19T05:10:12.863Z,47.85
2018-02-19T05:12:40.348Z,54.17
2018-02-19T05:15:07.766Z,48.72
2018-02-19T05:17:35.181Z,44.63
2018-02-19T05:20:02.674Z,45.47
2018-02-19T05:22:30.089Z,47.65
2018-02-19T05:24:57.506Z,44.53
2018-02-19T05:27:24.929Z,42.10
2018-02-19T05:29:52.351Z,50.03
2018-02-19T05:32:19.782Z,51.35
2018-02-19T05:34:47.212Z,47.67
2018-02-19T05:37:15.358Z,48.80
2018-02-19T05:39:42.779Z,47.97
2018-02-19T05:42:10.195Z,44.10
2018-02-19T05:44:37.639Z,47.28
2018-02-19T05:47:05.042Z,51.10
2018-02-19T05:49:32.473Z,48.40
2018-02-19T05:51:59.898Z,48.53
2018-02-19T05:54:27.339Z,43.50
2018-02-19T05:56:54.759Z,43.05
2018-02-19T05:59:22.194Z,45.85
2018-02-19T06:01:49.874Z,49.10
2018-02-19T06:04:17.285Z,45.45
2018-02-19T06:06:44.722Z,45.72
2018-02-19T06:09:12.139Z,43.50
2018-02-19T06:11:39.556Z,44.90
2018-02-19T06:14:06.986Z,44.70
2018-02-19T06:16:34.401Z,39.28
2018-02-19T06:19:01.826Z,42.17
2018-02-19T06:21:29.245Z,47.03
2018-02-19T06:23:56.677Z,48.00
2018-02-19T06:26:24.109Z,44.22
2018-02-19T06:28:51.536Z,47.97
2018-02-19T06:31:18.982Z,43.58
2018-02-19T06:33:46.392Z,51.13
2018-02-19T06:36:13.844Z,46.85
2018-02-19T06:38:41.278Z,46.53
2018-02-19T06:41:08.735Z,45.42
2018-02-19T06:43:36.158Z,48.30
2018-02-19T06:46:03.594Z,48.03
2018-02-19T06:48:31.033Z,50.72
2018-02-19T06:50:58.461Z,49.35
2018-02-19T06:53:25.882Z,47.10
2018-02-19T06:55:53.302Z,50.47
2018-02-19T06:58:20.749Z,50.90
2018-02-19T07:00:48.178Z,48.78
2018-02-19T07:03:15.620Z,46.40
2018-02-19T07:05:43.026Z,44.40
2018-02-19T07:08:10.494Z,47.33
2018-02-19T07:10:37.963Z,46.95
2018-02-19T07:13:05.441Z,43.20
2018-02-19T07:15:32.893Z,49.38
2018-02-19T07:18:00.337Z,50.45
2018-02-19T07:20:30.691Z,51.30
2018-02-19T07:22:58.107Z,47.65
2018-02-19T07:25:25.529Z,45.53
2018-02-19T07:27:52.961Z,38.25
2018-02-19T07:30:20.410Z,44.60
2018-02-19T07:32:47.845Z,46.13
2018-02-19T07:35:15.287Z,44.08
2018-02-19T07:37:42.754Z,45.53
2018-02-19T07:40:10.175Z,43.78
2018-02-19T07:42:37.598Z,45.55
2018-02-19T07:45:05.022Z,48.85
2018-02-19T07:47:32.446Z,48.45
2018-02-19T07:49:59.867Z,44.15
2018-02-19T07:52:27.302Z,45.80
2018-02-19T07:54:54.719Z,43.30
2018-02-19T07:57:22.142Z,40.50
2018-02-19T07:59:49.562Z,45.00
2018-02-19T08:02:16.985Z,48.47
2018-02-19T08:04:44.400Z,40.33
2018-02-19T08:07:11.818Z,43.83
2018-02-19T08:09:39.250Z,42.10
2018-02-19T08:12:06.666Z,46.70
2018-02-19T08:14:34.095Z,44.08
2018-02-19T08:17:01.516Z,42.92
2018-02-19T08:19:28.934Z,43.83
2018-02-19T08:21:56.362Z,47.42
2018-02-19T08:24:23.783Z,45.53
2018-02-19T08:26:51.217Z,41.88
2018-02-19T08:29:18.635Z,45.38
2018-02-19T08:31:46.059Z,43.00
2018-02-19T08:34:13.486Z,45.60
2018-02-19T08:36:40.910Z,44.72
2018-02-19T08:39:08.345Z,49.70
2018-02-19T08:41:35.768Z,44.70
2018-02-19T08:44:03.186Z,45.40
2018-02-19T08:46:30.622Z,42.60
2018-02-19T08:48:58.063Z,45.53
2018-02-19T08:51:25.466Z,40.90
2018-02-19T08:53:52.890Z,43.38
2018-02-19T08:56:20.330Z,49.72
2018-02-19T08:58:47.870Z,40.25
2018-02-19T09:01:15.306Z,44.53
2018-02-19T09:03:42.736Z,46.25
2018-02-19T09:06:10.158Z,46.95
2018-02-19T09:08:37.590Z,41.53
2018-02-19T09:11:05.025Z,45.70
2018-02-19T09:13:32.454Z,48.17
2018-02-19T09:15:59.946Z,42.47
2018-02-19T09:18:27.358Z,41.87
2018-02-19T09:20:54.794Z,40.87
2018-02-19T09:23:22.244Z,42.47
2018-02-19T09:25:49.670Z,45.05
2018-02-19T09:28:17.106Z,38.55
2018-02-19T09:30:44.558Z,40.88
2018-02-19T09:33:11.993Z,42.30
2018-02-19T09:35:39.426Z,37.60
2018-02-19T09:38:06.863Z,41.33
2018-02-19T09:40:34.325Z,39.67
2018-02-19T09:43:01.766Z,42.05
2018-02-19T09:45:29.240Z,45.85
2018-02-19T09:47:56.671Z,40.08
2018-02-19T09:50:24.142Z,38.88
2018-02-19T09:52:51.579Z,42.15
2018-02-19T09:55:19.037Z,39.20
2018-02-19T09:57:46.463Z,41.78
2018-02-19T10:00:13.894Z,41.83
2018-02-19T10:02:41.326Z,41.47
2018-02-19T10:05:08.745Z,41.30
2018-02-19T10:07:36.166Z,41.40
2018-02-19T10:10:03.924Z,40.13
2018-02-19T10:12:31.302Z,39.53
2018-02-19T10:14:58.718Z,42.47
2018-02-19T10:17:26.143Z,45.75
2018-02-19T10:19:53.551Z,43.07
2018-02-19T10:22:20.978Z,40.10
2018-02-19T10:24:48.394Z,41.63
2018-02-19T10:27:15.806Z,37.03
2018-02-19T10:29:43.255Z,41.80
2018-02-19T10:32:10.650Z,42.53
2018-02-19T10:34:38.070Z,40.80
2018-02-19T10:37:05.482Z,36.80
2018-02-19T10:39:32.901Z,39.17
2018-02-19T10:42:00.314Z,42.63
2018-02-19T10:44:27.732Z,37.90
2018-02-19T10:46:55.150Z,37.97
2018-02-19T10:49:22.562Z,35.20
2018-02-19T10:51:49.979Z,40.70
2018-02-19T10:54:17.391Z,40.90
2018-02-19T10:56:44.817Z,40.43
2018-02-19T10:59:12.237Z,40.90
2018-02-19T11:01:39.646Z,40.10
2018-02-19T11:04:07.074Z,38.53
2018-02-19T11:06:34.482Z,38.77
2018-02-19T11:09:01.906Z,39.93
2018-02-19T11:11:29.314Z,36.83
2018-02-19T11:13:56.737Z,40.10
2018-02-19T11:16:24.146Z,40.10
2018-02-19T11:18:51.557Z,38.47
2018-02-19T11:21:18.979Z,38.03
2018-02-19T11:23:46.398Z,37.57
2018-02-19T11:26:13.822Z,41.00
2018-02-19T11:28:41.237Z,40.20
2018-02-19T11:31:08.650Z,41.90
2018-02-19T11:33:36.068Z,32.53
2018-02-19T11:36:03.478Z,34.87
2018-02-19T11:38:30.918Z,42.73
2018-02-19T11:40:58.330Z,39.90
2018-02-19T11:43:25.738Z,39.10
2018-02-19T11:45:53.161Z,40.70
2018-02-19T11:48:20.568Z,39.53
2018-02-19T11:50:47.990Z,38.93
2018-02-19T11:53:15.402Z,36.77
2018-02-19T11:55:42.829Z,35.80
2018-02-19T11:58:10.246Z,38.50
2018-02-19T12:00:37.658Z,39.37
2018-02-19T12:03:05.086Z,33.73
2018-02-19T12:05:32.506Z,37.83
2018-02-19T12:08:01.551Z,39.07
2018-02-19T12:10:28.974Z,33.30
2018-02-19T12:12:56.411Z,39.80
2018-02-19T12:15:23.818Z,37.73
2018-02-19T12:17:51.234Z,32.00
2018-02-19T12:20:18.656Z,37.60
2018-02-19T12:22:46.078Z,34.00
2018-02-19T12:25:13.502Z,31.90
2018-02-19T12:27:40.911Z,41.10
2018-02-19T12:30:08.345Z,36.43
2018-02-19T12:32:35.762Z,40.33
2018-02-19T12:35:03.171Z,37.77
2018-02-19T12:37:30.586Z,36.07
2018-02-19T12:39:58.004Z,39.70
2018-02-19T12:42:25.417Z,35.27
2018-02-19T12:44:52.831Z,38.50
2018-02-19T12:47:20.269Z,34.30
2018-02-19T12:49:47.682Z,34.03
2018-02-19T12:52:15.094Z,33.67
2018-02-19T12:54:42.517Z,30.60
2018-02-19T12:57:09.927Z,32.87
2018-02-19T12:59:37.347Z,32.30
2018-02-19T13:02:04.766Z,33.90
2018-02-19T13:04:32.199Z,35.03
2018-02-19T13:06:59.614Z,36.33
2018-02-19T13:09:27.085Z,34.40
2018-02-19T13:11:54.511Z,35.63
2018-02-19T13:14:21.918Z,36.47
2018-02-19T13:16:49.343Z,31.90
2018-02-19T13:19:16.758Z,34.40
2018-02-19T13:21:44.169Z,37.40
2018-02-19T13:24:11.595Z,37.70
2018-02-19T13:26:39.010Z,36.20
2018-02-19T13:29:06.430Z,33.20
2018-02-19T13:31:33.842Z,35.13
2018-02-19T13:34:01.279Z,34.00
2018-02-19T13:36:28.701Z,35.70
2018-02-19T13:38:56.094Z,31.90
2018-02-19T13:41:23.515Z,34.27
2018-02-19T13:43:50.930Z,30.87
2018-02-19T13:46:18.366Z,31.93
2018-02-19T13:48:45.781Z,29.03
2018-02-19T13:51:13.201Z,31.27
2018-02-19T13:53:40.624Z,36.50
2018-02-19T13:56:08.034Z,35.40
2018-02-19T13:58:35.458Z,34.07
2018-02-19T14:01:02.867Z,37.87
2018-02-19T14:03:30.285Z,32.67
2018-02-19T14:05:57.705Z,36.57
2018-02-19T14:08:25.114Z,32.17
2018-02-19T14:10:52.542Z,38.10
2018-02-19T14:13:19.954Z,36.60
2018-02-19T14:15:47.391Z,36.37
2018-02-19T14:18:14.806Z,33.40
2018-02-19T14:20:42.226Z,40.67
2018-02-19T14:23:09.638Z,36.80
2018-02-19T14:25:37.062Z,36.90
2018-02-19T14:28:04.491Z,39.73
2018-02-19T14:30:31.901Z,36.70
2018-02-19T14:32:59.311Z,34.87
2018-02-19T14:35:26.730Z,31.50
2018-02-19T14:37:54.144Z,33.17
2018-02-19T14:40:21.588Z,34.93
2018-02-19T14:42:49.006Z,34.90
2018-02-19T14:45:16.411Z,33.50
2018-02-19T14:47:43.826Z,35.43
2018-02-19T14:50:11.237Z,35.80
2018-02-19T14:52:38.674Z,37.40
2018-02-19T14:55:06.126Z,34.43
2018-02-19T14:57:33.530Z,42.23
2018-02-19T15:00:00.950Z,39.23
2018-02-19T15:02:28.357Z,43.00
2018-02-19T15:04:55.801Z,39.90
2018-02-19T15:07:23.218Z,36.03
2018-02-19T15:09:50.639Z,34.83
2018-02-19T15:12:18.062Z,37.30
2018-02-19T15:14:45.475Z,37.03
2018-02-19T15:17:12.899Z,35.47
2018-02-19T15:19:40.326Z,38.43
2018-02-19T15:22:07.738Z,34.83
2018-02-19T15:24:35.155Z,36.93
2018-02-19T15:27:02.570Z,35.37
2018-02-19T15:29:29.999Z,36.07
2018-02-19T15:31:57.410Z,35.67
2018-02-19T15:34:24.830Z,36.63
2018-02-19T15:36:52.255Z,36.97
2018-02-19T15:39:19.666Z,37.03
2018-02-19T15:41:47.101Z,32.57
2018-02-19T15:44:14.514Z,35.67
2018-02-19T15:46:41.918Z,36.97
2018-02-19T15:49:09.344Z,34.90
2018-02-19T15:51:36.754Z,38.40
2018-02-19T15:54:04.181Z,40.07
2018-02-19T15:56:31.598Z,36.77
2018-02-19T15:58:58.997Z,35.40
2018-02-19T16:01:26.422Z,37.37
2018-02-19T16:03:53.836Z,41.50
2018-02-19T16:06:21.266Z,34.50
2018-02-19T16:08:48.674Z,34.97
2018-02-19T16:11:16.106Z,34.03
2018-02-19T16:13:43.526Z,40.50
2018-02-19T16:16:10.934Z,33.50
2018-02-19T16:18:38.358Z,32.33
2018-02-19T16:21:05.774Z,33.30
2018-02-19T16:23:33.231Z,37.00
2018-02-19T16:26:00.605Z,33.20
2018-02-19T16:28:28.035Z,33.10
2018-02-19T16:30:55.474Z,37.60
2018-02-19T16:33:22.894Z,34.77
2018-02-19T16:35:50.311Z,35.40
2018-02-19T16:38:17.747Z,34.87
2018-02-19T16:40:45.160Z,34.73
2018-02-19T16:43:12.594Z,34.67
2018-02-19T16:45:40.007Z,38.03
2018-02-19T16:48:07.425Z,32.97
2018-02-19T16:50:34.850Z,33.70
2018-02-19T16:53:02.278Z,37.90
2018-02-19T16:55:29.687Z,39.43
2018-02-19T16:57:57.094Z,36.40
2018-02-19T17:00:24.510Z,35.50
2018-02-19T17:02:51.933Z,34.37
2018-02-19T17:05:19.346Z,33.37
2018-02-19T17:07:46.785Z,34.40
2018-02-19T17:10:14.194Z,39.00
2018-02-19T17:12:41.603Z,37.03
2018-02-19T17:15:09.018Z,35.27
2018-02-19T17:17:36.446Z,37.80
2018-02-19T17:20:03.886Z,38.17
2018-02-19T17:22:31.301Z,34.40
2018-02-19T17:24:58.718Z,39.60
2018-02-19T17:27:26.153Z,36.63
2018-02-19T17:29:53.574Z,35.53
2018-02-19T17:32:20.998Z,38.63
2018-02-19T17:34:48.650Z,37.90
2018-02-19T17:37:16.069Z,34.30
2018-02-19T17:39:43.499Z,37.73
2018-02-19T17:42:10.948Z,40.67
2018-02-19T17:44:38.377Z,40.10
2018-02-19T17:47:05.798Z,39.83
2018-02-19T17:49:33.224Z,36.97
2018-02-19T17:52:00.646Z,39.40
2018-02-19T17:54:28.061Z,37.73
2018-02-19T17:56:55.497Z,37.30
2018-02-19T17:59:22.914Z,37.83
2018-02-19T18:01:50.343Z,38.13
2018-02-19T18:04:17.762Z,36.40
2018-02-19T18:06:45.174Z,38.03
2018-02-19T18:09:12.598Z,39.17
2018-02-19T18:11:40.015Z,36.60
2018-02-19T18:14:07.426Z,36.43
2018-02-19T18:16:34.863Z,35.83
2018-02-19T18:19:02.290Z,35.17
2018-02-19T18:21:29.718Z,37.63
2018-02-19T18:23:57.122Z,39.43
2018-02-19T18:26:24.535Z,37.50
2018-02-19T18:28:51.954Z,42.37
2018-02-19T18:31:19.367Z,39.90
2018-02-19T18:33:46.802Z,40.83
2018-02-19T18:36:14.218Z,38.43
2018-02-19T18:38:41.632Z,41.80
2018-02-19T18:41:09.045Z,41.47
2018-02-19T18:43:36.459Z,40.07
2018-02-19T18:46:03.902Z,37.47
2018-02-19T18:48:31.315Z,40.20
2018-02-19T18:50:58.740Z,44.73
2018-02-19T18:53:26.239Z,42.37
2018-02-19T18:55:53.665Z,38.90
2018-02-19T18:58:21.114Z,41.63
2018-02-19T19:00:48.526Z,38.97
2018-02-19T19:03:15.942Z,37.97
2018-02-19T19:05:43.369Z,37.17
2018-02-19T19:08:22.388Z,39.80
2018-02-19T19:10:52.322Z,41.33
2018-02-19T19:13:19.734Z,43.23
2018-02-19T19:15:47.179Z,42.70
2018-02-19T19:18:14.695Z,45.20
2018-02-19T19:20:42.101Z,42.70
2018-02-19T19:23:09.531Z,46.80
2018-02-19T19:25:36.942Z,43.50
2018-02-19T19:28:04.371Z,44.90
2018-02-19T19:30:32.738Z,42.40
2018-02-19T19:33:00.147Z,41.40
2018-02-19T19:35:27.665Z,47.67
2018-02-19T19:37:55.074Z,43.67
2018-02-19T19:40:22.541Z,50.03
2018-02-19T19:42:50.047Z,45.23
2018-02-19T19:45:17.462Z,45.77
2018-02-19T19:47:44.881Z,47.13
2018-02-19T19:50:12.504Z,46.23
2018-02-19T19:52:39.958Z,40.13
2018-02-19T19:55:07.397Z,40.73
2018-02-19T19:57:34.818Z,50.20
2018-02-19T20:00:02.271Z,49.27
2018-02-19T20:02:29.771Z,52.30
2018-02-19T20:04:57.468Z,48.80
2018-02-19T20:07:24.876Z,49.13
2018-02-19T20:09:52.355Z,50.13
2018-02-19T20:12:19.761Z,49.53
2018-02-19T20:14:47.206Z,60.50
2018-02-19T20:17:16.510Z,56.40
2018-02-19T20:19:43.914Z,58.53
2018-02-19T20:22:11.334Z,61.80
2018-02-19T20:24:38.754Z,63.20
2018-02-19T20:27:06.171Z,71.27
2018-02-19T20:29:33.582Z,62.73
2018-02-19T20:32:01.022Z,64.00
2018-02-19T20:34:28.441Z,59.40
2018-02-19T20:36:55.851Z,57.03
2018-02-19T20:39:23.280Z,57.00
2018-02-19T20:41:50.686Z,59.57
2018-02-19T20:44:18.101Z,58.27
2018-02-19T20:46:45.523Z,57.73
2018-02-19T20:49:12.958Z,65.93
2018-02-19T20:51:40.372Z,57.30
2018-02-19T20:54:07.791Z,60.95
2018-02-19T20:56:35.218Z,51.35
2018-02-19T20:59:02.633Z,52.70
2018-02-19T21:01:30.061Z,50.60
2018-02-19T21:03:57.470Z,51.37
2018-02-19T21:06:24.896Z,53.30
2018-02-19T21:08:52.307Z,51.10
2018-02-19T21:11:19.731Z,48.15
2018-02-19T21:13:47.164Z,53.47
2018-02-19T21:16:14.590Z,48.95
2018-02-19T21:18:42.084Z,52.85
2018-02-19T21:21:09.451Z,52.55
2018-02-19T21:23:37.307Z,49.15
2018-02-19T21:26:04.782Z,57.53
2018-02-19T21:28:32.197Z,51.97
2018-02-19T21:30:59.622Z,54.95
2018-02-19T21:33:27.046Z,54.30
2018-02-19T21:35:54.469Z,50.03
2018-02-19T21:38:21.905Z,47.97
2018-02-19T21:40:49.329Z,54.25
2018-02-19T21:43:16.762Z,47.72
2018-02-19T21:45:44.189Z,51.53
2018-02-19T21:48:11.615Z,51.45
2018-02-19T21:50:39.027Z,49.27
2018-02-19T21:53:06.454Z,51.37
2018-02-19T21:55:33.874Z,52.65
2018-02-19T21:58:01.302Z,48.95
2018-02-19T22:00:28.730Z,48.38
2018-02-19T22:02:56.168Z,46.40
2018-02-19T22:05:23.585Z,53.20
2018-02-19T22:07:51.034Z,52.07
2018-02-19T22:10:18.421Z,46.37
2018-02-19T22:12:45.846Z,50.45
2018-02-19T22:15:13.282Z,52.03
2018-02-19T22:17:40.742Z,48.80
2018-02-19T22:20:08.619Z,48.13
2018-02-19T22:22:36.048Z,53.00
2018-02-19T22:25:03.479Z,49.67
2018-02-19T22:27:30.919Z,49.03
2018-02-19T22:29:58.337Z,47.88
2018-02-19T22:32:26.050Z,45.75
2018-02-19T22:34:53.481Z,53.85
2018-02-19T22:37:21.295Z,52.30
2018-02-19T22:39:48.750Z,53.92
2018-02-19T22:42:16.429Z,50.92
2018-02-19T22:44:44.207Z,54.85
2018-02-19T22:47:11.636Z,55.10
2018-02-19T22:49:39.051Z,53.58
2018-02-19T22:52:06.563Z,52.90
2018-02-19T22:54:33.949Z,52.30
2018-02-19T22:57:01.394Z,52.20
2018-02-19T22:59:28.814Z,49.50
2018-02-19T23:01:56.229Z,51.37
2018-02-19T23:04:23.658Z,51.25
2018-02-19T23:06:51.086Z,54.03
2018-02-19T23:09:18.522Z,50.67
2018-02-19T23:11:45.948Z,50.33
2018-02-19T23:14:13.406Z,51.22
2018-02-19T23:16:40.798Z,41.45
2018-02-19T23:19:08.231Z,46.63
2018-02-19T23:21:35.674Z,44.00
2018-02-19T23:24:03.091Z,49.17
2018-02-19T23:26:30.510Z,50.17
2018-02-19T23:28:57.969Z,46.17
2018-02-19T23:31:25.389Z,44.60
2018-02-19T23:33:52.835Z,43.60
2018-02-19T23:36:20.258Z,46.65
2018-02-19T23:38:47.692Z,42.97
2018-02-19T23:41:15.113Z,45.53
2018-02-19T23:43:42.551Z,46.25
2018-02-19T23:46:09.985Z,46.53
2018-02-19T23:48:37.408Z,47.50
2018-02-19T23:51:04.837Z,46.05
2018-02-19T23:53:32.262Z,46.75
2018-02-19T23:55:59.689Z,43.75
2018-02-19T23:58:27.123Z,47.17
